sensor_id;sensor_type;location;lat;lon;timestamp;pressure;altitude;pressure_sealevel;temperature;humidity
71424;BME280;59240;51.370;-0.486;2022-11-20T00:01:09;101115.50;;;4.68;84.56
71424;BME280;59240;51.370;-0.486;2022-11-20T00:03:36;101094.75;;;4.57;83.82
71424;BME280;59240;51.370;-0.486;2022-11-20T00:06:05;101110.34;;;4.71;83.83
71424;BME280;59240;51.370;-0.486;2022-11-20T00:08:33;101112.09;;;4.75;84.21
71424;BME280;59240;51.370;-0.486;2022-11-20T00:11:16;101108.66;;;4.76;84.60
71424;BME280;59240;51.370;-0.486;2022-11-20T00:13:44;101099.19;;;4.80;84.49
71424;BME280;59240;51.370;-0.486;2022-11-20T00:16:11;101099.25;;;4.84;84.32
71424;BME280;59240;51.370;-0.486;2022-11-20T00:18:38;101103.53;;;4.85;84.27
71424;BME280;59240;51.370;-0.486;2022-11-20T00:21:09;101098.41;;;4.88;84.48
71424;BME280;59240;51.370;-0.486;2022-11-20T00:23:36;101094.13;;;4.90;84.48
71424;BME280;59240;51.370;-0.486;2022-11-20T00:26:04;101097.56;;;4.92;84.63
71424;BME280;59240;51.370;-0.486;2022-11-20T00:28:31;101093.31;;;4.94;84.11
71424;BME280;59240;51.370;-0.486;2022-11-20T00:31:07;101063.09;;;4.81;84.50
71424;BME280;59240;51.370;-0.486;2022-11-20T00:33:34;101084.75;;;5.02;83.80
71424;BME280;59240;51.370;-0.486;2022-11-20T00:36:02;101079.56;;;5.02;84.16
71424;BME280;59240;51.370;-0.486;2022-11-20T00:38:31;101051.09;;;4.92;83.46
71424;BME280;59240;51.370;-0.486;2022-11-20T00:40:59;101083.06;;;5.10;83.92
71424;BME280;59240;51.370;-0.486;2022-11-20T00:43:27;101076.16;;;5.10;83.25
71424;BME280;59240;51.370;-0.486;2022-11-20T00:46:08;101069.28;;;5.14;83.90
71424;BME280;59240;51.370;-0.486;2022-11-20T00:48:35;101066.69;;;5.14;83.69
71424;BME280;59240;51.370;-0.486;2022-11-20T00:51:02;101062.44;;;5.16;84.07
71424;BME280;59240;51.370;-0.486;2022-11-20T00:53:28;101036.50;;;5.01;84.06
71424;BME280;59240;51.370;-0.486;2022-11-20T00:56:00;101060.69;;;5.18;84.55
71424;BME280;59240;51.370;-0.486;2022-11-20T00:58:31;101043.47;;;5.17;83.29
71424;BME280;59240;51.370;-0.486;2022-11-20T01:03:37;101053.84;;;5.23;82.93
71424;BME280;59240;51.370;-0.486;2022-11-20T01:06:06;101041.78;;;5.25;82.96
71424;BME280;59240;51.370;-0.486;2022-11-20T01:08:35;101048.69;;;5.26;83.93
71424;BME280;59240;51.370;-0.486;2022-11-20T01:11:05;101034.91;;;5.24;83.36
71424;BME280;59240;51.370;-0.486;2022-11-20T01:13:32;101038.38;;;5.32;84.42
71424;BME280;59240;51.370;-0.486;2022-11-20T01:18:38;101035.81;;;5.35;83.53
71424;BME280;59240;51.370;-0.486;2022-11-20T01:21:08;101030.66;;;5.37;83.45
71424;BME280;59240;51.370;-0.486;2022-11-20T01:23:37;101022.91;;;5.35;83.43
71424;BME280;59240;51.370;-0.486;2022-11-20T01:26:06;101014.28;;;5.39;83.80
71424;BME280;59240;51.370;-0.486;2022-11-20T01:28:34;100997.06;;;5.29;83.96
71424;BME280;59240;51.370;-0.486;2022-11-20T01:31:01;101022.91;;;5.44;83.69
71424;BME280;59240;51.370;-0.486;2022-11-20T01:33:36;101013.44;;;5.46;84.50
71424;BME280;59240;51.370;-0.486;2022-11-20T01:36:04;101014.31;;;5.48;83.53
71424;BME280;59240;51.370;-0.486;2022-11-20T01:38:31;101014.31;;;5.48;84.16
71424;BME280;59240;51.370;-0.486;2022-11-20T01:40:58;101016.03;;;5.53;84.36
71424;BME280;59240;51.370;-0.486;2022-11-20T01:43:25;101003.97;;;5.55;84.55
71424;BME280;59240;51.370;-0.486;2022-11-20T01:46:11;101002.28;;;5.57;83.97
71424;BME280;59240;51.370;-0.486;2022-11-20T01:49:00;100993.66;;;5.58;83.24
71424;BME280;59240;51.370;-0.486;2022-11-20T01:54:39;100942.81;;;5.38;83.96
71424;BME280;59240;51.370;-0.486;2022-11-20T01:57:10;100971.28;;;5.63;84.72
71424;BME280;59240;51.370;-0.486;2022-11-20T01:59:43;100973.88;;;5.63;84.10
71424;BME280;59240;51.370;-0.486;2022-11-20T02:02:11;100960.94;;;5.63;84.51
71424;BME280;59240;51.370;-0.486;2022-11-20T02:04:37;100966.97;;;5.66;83.74
71424;BME280;59240;51.370;-0.486;2022-11-20T02:07:05;100954.03;;;5.68;83.37
71424;BME280;59240;51.370;-0.486;2022-11-20T02:09:31;100950.59;;;5.67;84.40
71424;BME280;59240;51.370;-0.486;2022-11-20T02:11:58;100953.19;;;5.72;84.49
71424;BME280;59240;51.370;-0.486;2022-11-20T02:14:26;100952.31;;;5.73;84.62
71424;BME280;59240;51.370;-0.486;2022-11-20T02:16:54;100935.97;;;5.72;83.54
71424;BME280;59240;51.370;-0.486;2022-11-20T02:19:31;100930.78;;;5.71;84.23
71424;BME280;59240;51.370;-0.486;2022-11-20T02:22:16;100929.06;;;5.81;83.64
71424;BME280;59240;51.370;-0.486;2022-11-20T02:24:46;100936.81;;;5.82;84.23
71424;BME280;59240;51.370;-0.486;2022-11-20T02:27:16;100933.38;;;5.86;83.49
71424;BME280;59240;51.370;-0.486;2022-11-20T02:30:04;100931.63;;;5.88;84.22
71424;BME280;59240;51.370;-0.486;2022-11-20T02:32:33;100919.59;;;5.87;83.74
71424;BME280;59240;51.370;-0.486;2022-11-20T02:35:08;100919.59;;;5.90;84.51
71424;BME280;59240;51.370;-0.486;2022-11-20T02:37:37;100923.91;;;5.94;83.34
71424;BME280;59240;51.370;-0.486;2022-11-20T02:40:05;100906.69;;;5.93;84.00
71424;BME280;59240;51.370;-0.486;2022-11-20T02:42:32;100908.41;;;5.97;84.13
71424;BME280;59240;51.370;-0.486;2022-11-20T02:44:58;100912.72;;;5.98;83.98
71424;BME280;59240;51.370;-0.486;2022-11-20T02:47:25;100914.44;;;6.01;84.24
71424;BME280;59240;51.370;-0.486;2022-11-20T02:49:51;100914.41;;;6.02;83.93
71424;BME280;59240;51.370;-0.486;2022-11-20T02:52:18;100913.56;;;6.05;83.49
71424;BME280;59240;51.370;-0.486;2022-11-20T02:54:44;100916.16;;;6.07;83.51
71424;BME280;59240;51.370;-0.486;2022-11-20T02:57:11;100912.69;;;6.08;83.85
71424;BME280;59240;51.370;-0.486;2022-11-20T02:59:37;100921.31;;;6.13;84.73
71424;BME280;59240;51.370;-0.486;2022-11-20T03:02:04;100900.63;;;6.07;84.38
71424;BME280;59240;51.370;-0.486;2022-11-20T03:04:31;100898.91;;;6.12;83.50
71424;BME280;59240;51.370;-0.486;2022-11-20T03:06:57;100903.22;;;6.14;84.04
71424;BME280;59240;51.370;-0.486;2022-11-20T03:09:24;100897.16;;;6.17;84.28
71424;BME280;59240;51.370;-0.486;2022-11-20T03:11:50;100873.94;;;6.05;83.78
71424;BME280;59240;51.370;-0.486;2022-11-20T03:14:17;100893.72;;;6.18;83.92
71424;BME280;59240;51.370;-0.486;2022-11-20T03:16:44;100892.81;;;6.23;84.74
71424;BME280;59240;51.370;-0.486;2022-11-20T03:19:11;100885.94;;;6.25;84.48
71424;BME280;59240;51.370;-0.486;2022-11-20T03:21:38;100883.34;;;6.27;84.52
71424;BME280;59240;51.370;-0.486;2022-11-20T03:24:04;100875.59;;;6.25;84.61
71424;BME280;59240;51.370;-0.486;2022-11-20T03:26:31;100869.53;;;6.28;84.31
71424;BME280;59240;51.370;-0.486;2022-11-20T03:28:59;100864.34;;;6.31;84.13
71424;BME280;59240;51.370;-0.486;2022-11-20T03:31:29;100860.91;;;6.32;83.85
71424;BME280;59240;51.370;-0.486;2022-11-20T03:33:57;100855.75;;;6.32;84.99
71424;BME280;59240;51.370;-0.486;2022-11-20T03:36:26;100851.41;;;6.31;84.61
71424;BME280;59240;51.370;-0.486;2022-11-20T03:38:54;100846.25;;;6.34;85.07
71424;BME280;59240;51.370;-0.486;2022-11-20T03:41:23;100849.69;;;6.36;85.21
71424;BME280;59240;51.370;-0.486;2022-11-20T03:43:51;100836.75;;;6.36;84.78
71424;BME280;59240;51.370;-0.486;2022-11-20T03:46:17;100835.03;;;6.32;86.95
71424;BME280;59240;51.370;-0.486;2022-11-20T03:48:44;100828.16;;;6.28;89.00
71424;BME280;59240;51.370;-0.486;2022-11-20T03:51:28;100835.03;;;6.29;90.03
71424;BME280;59240;51.370;-0.486;2022-11-20T03:53:57;100827.31;;;6.26;90.41
71424;BME280;59240;51.370;-0.486;2022-11-20T03:56:26;100830.75;;;6.26;90.66
71424;BME280;59240;51.370;-0.486;2022-11-20T03:58:53;100815.19;;;6.29;91.39
71424;BME280;59240;51.370;-0.486;2022-11-20T04:01:22;100811.75;;;6.29;92.26
71424;BME280;59240;51.370;-0.486;2022-11-20T04:03:51;100803.16;;;6.32;92.23
71424;BME280;59240;51.370;-0.486;2022-11-20T04:06:21;100807.44;;;6.34;92.35
71424;BME280;59240;51.370;-0.486;2022-11-20T04:08:48;100772.94;;;6.29;92.32
71424;BME280;59240;51.370;-0.486;2022-11-20T04:11:28;100784.13;;;6.36;93.86
71424;BME280;59240;51.370;-0.486;2022-11-20T04:13:58;100792.75;;;6.39;93.13
71424;BME280;59240;51.370;-0.486;2022-11-20T04:16:25;100779.81;;;6.36;93.46
71424;BME280;59240;51.370;-0.486;2022-11-20T04:18:54;100784.13;;;6.39;93.31
71424;BME280;59240;51.370;-0.486;2022-11-20T04:21:21;100776.34;;;6.40;92.98
71424;BME280;59240;51.370;-0.486;2022-11-20T04:23:49;100778.03;;;6.44;93.91
71424;BME280;59240;51.370;-0.486;2022-11-20T04:26:16;100774.59;;;6.47;93.35
71424;BME280;59240;51.370;-0.486;2022-11-20T04:28:43;100766.84;;;6.45;93.67
71424;BME280;59240;51.370;-0.486;2022-11-20T04:31:14;100760.78;;;6.49;94.09
71424;BME280;59240;51.370;-0.486;2022-11-20T04:33:41;100760.78;;;6.52;93.87
71424;BME280;59240;51.370;-0.486;2022-11-20T04:36:13;100756.44;;;6.54;94.87
71424;BME280;59240;51.370;-0.486;2022-11-20T04:38:40;100746.97;;;6.53;94.27
71424;BME280;59240;51.370;-0.486;2022-11-20T04:41:08;100743.50;;;6.51;94.92
71424;BME280;59240;51.370;-0.486;2022-11-20T04:43:37;100739.16;;;6.60;94.33
71424;BME280;59240;51.370;-0.486;2022-11-20T04:46:03;100721.09;;;6.50;94.18
71424;BME280;59240;51.370;-0.486;2022-11-20T04:48:30;100746.00;;;6.67;94.26
71424;BME280;59240;51.370;-0.486;2022-11-20T04:50:57;100741.69;;;6.67;95.05
71424;BME280;59240;51.370;-0.486;2022-11-20T04:53:23;100733.06;;;6.67;94.44
71424;BME280;59240;51.370;-0.486;2022-11-20T04:55:50;100728.75;;;6.67;95.49
71424;BME280;59240;51.370;-0.486;2022-11-20T04:58:16;100713.22;;;6.67;95.20
71424;BME280;59240;51.370;-0.486;2022-11-20T05:00:43;100703.75;;;6.66;94.24
71424;BME280;59240;51.370;-0.486;2022-11-20T05:03:09;100724.34;;;6.80;94.83
71424;BME280;59240;51.370;-0.486;2022-11-20T05:05:36;100689.88;;;6.70;94.70
71424;BME280;59240;51.370;-0.486;2022-11-20T05:08:02;100700.16;;;6.81;94.65
71424;BME280;59240;51.370;-0.486;2022-11-20T05:10:29;100704.47;;;6.83;95.44
71424;BME280;59240;51.370;-0.486;2022-11-20T05:12:56;100681.25;;;6.70;95.51
71424;BME280;59240;51.370;-0.486;2022-11-20T05:15:23;100692.34;;;6.85;96.06
71424;BME280;59240;51.370;-0.486;2022-11-20T05:17:51;100699.28;;;6.87;95.79
71424;BME280;59240;51.370;-0.486;2022-11-20T05:20:19;100701.84;;;6.88;96.47
71424;BME280;59240;51.370;-0.486;2022-11-20T05:22:45;100688.91;;;6.88;96.60
71424;BME280;59240;51.370;-0.486;2022-11-20T05:25:12;100690.59;;;6.91;96.62
71424;BME280;59240;51.370;-0.486;2022-11-20T05:27:38;100699.22;;;6.94;96.21
71424;BME280;59240;51.370;-0.486;2022-11-20T05:30:06;100675.94;;;6.88;95.44
71424;BME280;59240;51.370;-0.486;2022-11-20T05:32:33;100675.91;;;6.94;95.71
71424;BME280;59240;51.370;-0.486;2022-11-20T05:34:59;100670.72;;;6.91;96.19
71424;BME280;59240;51.370;-0.486;2022-11-20T05:37:26;100674.22;;;6.87;96.92
71424;BME280;59240;51.370;-0.486;2022-11-20T05:39:52;100679.31;;;6.96;96.67
71424;BME280;59240;51.370;-0.486;2022-11-20T05:42:19;100662.06;;;6.95;96.89
71424;BME280;59240;51.370;-0.486;2022-11-20T05:45:00;100655.97;;;6.99;97.18
71424;BME280;59240;51.370;-0.486;2022-11-20T05:47:32;100655.94;;;7.04;96.96
71424;BME280;59240;51.370;-0.486;2022-11-20T05:49:59;100643.03;;;6.99;95.88
71424;BME280;59240;51.370;-0.486;2022-11-20T05:52:29;100653.38;;;7.02;97.03
71424;BME280;59240;51.370;-0.486;2022-11-20T05:54:56;100644.72;;;7.03;97.22
71424;BME280;59240;51.370;-0.486;2022-11-20T05:57:23;100626.69;;;6.94;97.02
71424;BME280;59240;51.370;-0.486;2022-11-20T05:59:49;100642.16;;;7.02;96.59
71424;BME280;59240;51.370;-0.486;2022-11-20T06:02:16;100606.91;;;6.87;96.10
71424;BME280;59240;51.370;-0.486;2022-11-20T06:04:43;100641.31;;;7.01;96.93
71424;BME280;59240;51.370;-0.486;2022-11-20T06:07:09;100630.94;;;6.98;97.57
71424;BME280;59240;51.370;-0.486;2022-11-20T06:09:36;100612.94;;;6.88;96.49
71424;BME280;59240;51.370;-0.486;2022-11-20T06:12:03;100622.31;;;6.99;97.28
71424;BME280;59240;51.370;-0.486;2022-11-20T06:14:30;100612.84;;;6.97;96.51
71424;BME280;59240;51.370;-0.486;2022-11-20T06:16:56;100610.22;;;7.01;97.71
71424;BME280;59240;51.370;-0.486;2022-11-20T06:19:23;100600.66;;;7.05;97.57
71424;BME280;59240;51.370;-0.486;2022-11-20T06:21:49;100590.31;;;7.05;97.65
71424;BME280;59240;51.370;-0.486;2022-11-20T06:24:16;100589.44;;;7.07;97.86
71424;BME280;59240;51.370;-0.486;2022-11-20T06:26:43;100587.69;;;7.09;98.57
71424;BME280;59240;51.370;-0.486;2022-11-20T06:29:10;100577.31;;;7.09;98.83
71424;BME280;59240;51.370;-0.486;2022-11-20T06:31:37;100572.09;;;7.12;98.61
71424;BME280;59240;51.370;-0.486;2022-11-20T06:34:05;100570.38;;;7.15;98.78
71424;BME280;59240;51.370;-0.486;2022-11-20T06:36:32;100568.56;;;7.20;98.93
71424;BME280;59240;51.370;-0.486;2022-11-20T06:39:00;100547.09;;;7.10;98.93
71424;BME280;59240;51.370;-0.486;2022-11-20T06:41:26;100558.19;;;7.20;99.54
71424;BME280;59240;51.370;-0.486;2022-11-20T06:43:54;100582.44;;;7.16;100.00
71424;BME280;59240;51.370;-0.486;2022-11-20T06:46:21;100625.59;;;7.17;100.00
71424;BME280;59240;51.370;-0.486;2022-11-20T06:48:48;100630.78;;;7.17;100.00
71424;BME280;59240;51.370;-0.486;2022-11-20T06:51:15;100606.63;;;7.15;100.00
71424;BME280;59240;51.370;-0.486;2022-11-20T06:53:42;100594.53;;;7.12;100.00
71424;BME280;59240;51.370;-0.486;2022-11-20T06:56:09;100606.72;;;7.05;100.00
71424;BME280;59240;51.370;-0.486;2022-11-20T06:58:36;100605.81;;;7.09;100.00
71424;BME280;59240;51.370;-0.486;2022-11-20T07:01:09;100588.59;;;7.04;100.00
71424;BME280;59240;51.370;-0.486;2022-11-20T07:03:36;100596.31;;;7.10;100.00
71424;BME280;59240;51.370;-0.486;2022-11-20T07:06:04;100602.25;;;7.18;100.00
71424;BME280;59240;51.370;-0.486;2022-11-20T07:08:31;100585.84;;;7.21;100.00
71424;BME280;59240;51.370;-0.486;2022-11-20T07:11:03;100597.84;;;7.28;100.00
71424;BME280;59240;51.370;-0.486;2022-11-20T07:13:30;100591.78;;;7.29;100.00
71424;BME280;59240;51.370;-0.486;2022-11-20T07:16:02;100609.84;;;7.35;100.00
71424;BME280;59240;51.370;-0.486;2022-11-20T07:18:29;100607.25;;;7.33;100.00
71424;BME280;59240;51.370;-0.486;2022-11-20T07:20:59;100614.16;;;7.36;100.00
71424;BME280;59240;51.370;-0.486;2022-11-20T07:23:25;100612.38;;;7.39;100.00
71424;BME280;59240;51.370;-0.486;2022-11-20T07:25:52;100616.63;;;7.48;100.00
71424;BME280;59240;51.370;-0.486;2022-11-20T07:28:18;100607.97;;;7.49;100.00
71424;BME280;59240;51.370;-0.486;2022-11-20T07:30:52;100616.50;;;7.54;100.00
71424;BME280;59240;51.370;-0.486;2022-11-20T07:33:19;100621.69;;;7.57;100.00
71424;BME280;59240;51.370;-0.486;2022-11-20T07:35:46;100615.63;;;7.58;100.00
71424;BME280;59240;51.370;-0.486;2022-11-20T07:38:13;100623.34;;;7.61;100.00
71424;BME280;59240;51.370;-0.486;2022-11-20T07:40:39;100623.31;;;7.64;100.00
71424;BME280;59240;51.370;-0.486;2022-11-20T07:43:06;100619.88;;;7.61;100.00
71424;BME280;59240;51.370;-0.486;2022-11-20T07:45:32;100622.47;;;7.64;100.00
71424;BME280;59240;51.370;-0.486;2022-11-20T07:47:59;100619.03;;;7.60;100.00
71424;BME280;59240;51.370;-0.486;2022-11-20T07:50:25;100616.50;;;7.57;100.00
71424;BME280;59240;51.370;-0.486;2022-11-20T07:52:52;100610.41;;;7.60;100.00
71424;BME280;59240;51.370;-0.486;2022-11-20T07:55:18;100618.16;;;7.61;100.00
71424;BME280;59240;51.370;-0.486;2022-11-20T07:57:45;100624.25;;;7.59;100.00
71424;BME280;59240;51.370;-0.486;2022-11-20T08:00:12;100640.66;;;7.59;100.00
71424;BME280;59240;51.370;-0.486;2022-11-20T08:02:40;100645.88;;;7.58;100.00
71424;BME280;59240;51.370;-0.486;2022-11-20T08:05:08;100656.25;;;7.55;100.00
71424;BME280;59240;51.370;-0.486;2022-11-20T08:07:39;100653.72;;;7.52;100.00
71424;BME280;59240;51.370;-0.486;2022-11-20T08:10:07;100658.09;;;7.47;100.00
71424;BME280;59240;51.370;-0.486;2022-11-20T08:12:34;100659.00;;;7.43;100.00
71424;BME280;59240;51.370;-0.486;2022-11-20T08:15:19;100676.25;;;7.45;100.00
71424;BME280;59240;51.370;-0.486;2022-11-20T08:17:46;100678.03;;;7.42;100.00
71424;BME280;59240;51.370;-0.486;2022-11-20T08:20:33;100691.81;;;7.44;100.00
71424;BME280;59240;51.370;-0.486;2022-11-20T08:23:05;100693.50;;;7.46;100.00
71424;BME280;59240;51.370;-0.486;2022-11-20T08:25:36;100691.78;;;7.48;100.00
71424;BME280;59240;51.370;-0.486;2022-11-20T08:28:08;100697.81;;;7.50;100.00
71424;BME280;59240;51.370;-0.486;2022-11-20T08:30:45;100688.31;;;7.48;100.00
71424;BME280;59240;51.370;-0.486;2022-11-20T08:33:12;100682.31;;;7.44;100.00
71424;BME280;59240;51.370;-0.486;2022-11-20T08:35:39;100690.91;;;7.46;100.00
71424;BME280;59240;51.370;-0.486;2022-11-20T08:38:08;100697.81;;;7.47;100.00
71424;BME280;59240;51.370;-0.486;2022-11-20T08:40:35;100694.44;;;7.42;100.00
71424;BME280;59240;51.370;-0.486;2022-11-20T08:43:01;100705.66;;;7.43;100.00
71424;BME280;59240;51.370;-0.486;2022-11-20T08:45:28;100698.75;;;7.43;100.00
71424;BME280;59240;51.370;-0.486;2022-11-20T08:48:00;100708.22;;;7.44;100.00
71424;BME280;59240;51.370;-0.486;2022-11-20T08:50:27;100713.41;;;7.44;100.00
71424;BME280;59240;51.370;-0.486;2022-11-20T08:52:54;100716.84;;;7.46;100.00
71424;BME280;59240;51.370;-0.486;2022-11-20T08:55:21;100716.81;;;7.49;100.00
71424;BME280;59240;51.370;-0.486;2022-11-20T08:57:47;100727.16;;;7.52;100.00
71424;BME280;59240;51.370;-0.486;2022-11-20T09:00:16;100712.44;;;7.56;100.00
71424;BME280;59240;51.370;-0.486;2022-11-20T09:02:43;100717.56;;;7.60;100.00
71424;BME280;59240;51.370;-0.486;2022-11-20T09:05:09;100705.38;;;7.67;100.00
71424;BME280;59240;51.370;-0.486;2022-11-20T09:07:36;100712.22;;;7.76;100.00
71424;BME280;59240;51.370;-0.486;2022-11-20T09:10:03;100695.72;;;7.80;100.00
71424;BME280;59240;51.370;-0.486;2022-11-20T09:12:49;100697.44;;;7.81;100.00
71424;BME280;59240;51.370;-0.486;2022-11-20T09:15:18;100713.81;;;7.86;100.00
71424;BME280;59240;51.370;-0.486;2022-11-20T09:20:18;100732.03;;;7.80;100.00
71424;BME280;59240;51.370;-0.486;2022-11-20T09:22:45;100734.69;;;7.77;100.00
71424;BME280;59240;51.370;-0.486;2022-11-20T09:25:11;100733.81;;;7.75;100.00
71424;BME280;59240;51.370;-0.486;2022-11-20T09:27:38;100730.38;;;7.76;100.00
71424;BME280;59240;51.370;-0.486;2022-11-20T09:30:05;100730.38;;;7.73;100.00
71424;BME280;59240;51.370;-0.486;2022-11-20T09:32:31;100737.22;;;7.80;100.00
71424;BME280;59240;51.370;-0.486;2022-11-20T09:34:58;100740.69;;;7.79;100.00
71424;BME280;59240;51.370;-0.486;2022-11-20T09:37:25;100747.56;;;7.84;100.00
71424;BME280;59240;51.370;-0.486;2022-11-20T09:39:53;100744.09;;;7.84;100.00
71424;BME280;59240;51.370;-0.486;2022-11-20T09:42:31;100722.50;;;7.83;100.00
71424;BME280;59240;51.370;-0.486;2022-11-20T09:45:14;100722.47;;;7.85;100.00
71424;BME280;59240;51.370;-0.486;2022-11-20T09:50:38;100719.91;;;7.83;100.00
71424;BME280;59240;51.370;-0.486;2022-11-20T09:56:09;100713.84;;;7.81;100.00
71424;BME280;59240;51.370;-0.486;2022-11-20T09:58:41;100719.00;;;7.86;100.00
71424;BME280;59240;51.370;-0.486;2022-11-20T10:01:12;100706.88;;;7.88;100.00
71424;BME280;59240;51.370;-0.486;2022-11-20T10:06:34;100714.56;;;7.94;100.00
71424;BME280;59240;51.370;-0.486;2022-11-20T10:09:06;100717.03;;;8.05;100.00
71424;BME280;59240;51.370;-0.486;2022-11-20T10:14:23;100718.53;;;8.22;100.00
71424;BME280;59240;51.370;-0.486;2022-11-20T10:17:03;100718.41;;;8.30;100.00
71424;BME280;59240;51.370;-0.486;2022-11-20T10:23:16;100714.66;;;8.54;100.00
71424;BME280;59240;51.370;-0.486;2022-11-20T10:26:17;100720.59;;;8.62;100.00
71424;BME280;59240;51.370;-0.486;2022-11-20T10:31:40;100721.22;;;8.78;100.00
71424;BME280;59240;51.370;-0.486;2022-11-20T10:34:26;100717.63;;;8.87;100.00
71424;BME280;59240;51.370;-0.486;2022-11-20T10:37:16;100725.28;;;8.96;100.00
71424;BME280;59240;51.370;-0.486;2022-11-20T10:42:37;100736.50;;;8.99;100.00
71424;BME280;59240;51.370;-0.486;2022-11-20T10:50:25;100730.22;;;9.11;100.00
71424;BME280;59240;51.370;-0.486;2022-11-20T10:53:07;100721.38;;;9.21;100.00
71424;BME280;59240;51.370;-0.486;2022-11-20T10:55:57;100713.41;;;9.30;100.00
71424;BME280;59240;51.370;-0.486;2022-11-20T11:01:13;100723.31;;;9.58;100.00
71424;BME280;59240;51.370;-0.486;2022-11-20T11:03:41;100722.31;;;9.65;100.00
71424;BME280;59240;51.370;-0.486;2022-11-20T11:06:36;100724.66;;;9.79;100.00
71424;BME280;59240;51.370;-0.486;2022-11-20T11:09:10;100738.31;;;9.90;100.00
71424;BME280;59240;51.370;-0.486;2022-11-20T11:11:38;100728.53;;;10.03;100.00
71424;BME280;59240;51.370;-0.486;2022-11-20T11:14:06;100723.06;;;10.13;100.00
71424;BME280;59240;51.370;-0.486;2022-11-20T11:16:33;100726.38;;;10.23;100.00
71424;BME280;59240;51.370;-0.486;2022-11-20T11:19:10;100713.13;;;10.34;100.00
71424;BME280;59240;51.370;-0.486;2022-11-20T11:21:37;100714.81;;;10.35;100.00
71424;BME280;59240;51.370;-0.486;2022-11-20T11:24:22;100724.03;;;10.50;100.00
71424;BME280;59240;51.370;-0.486;2022-11-20T11:27:13;100729.06;;;10.59;100.00
71424;BME280;59240;51.370;-0.486;2022-11-20T11:29:43;100728.78;;;10.71;100.00
71424;BME280;59240;51.370;-0.486;2022-11-20T11:32:18;100733.03;;;10.75;100.00
71424;BME280;59240;51.370;-0.486;2022-11-20T11:37:46;100721.56;;;10.82;100.00
71424;BME280;59240;51.370;-0.486;2022-11-20T11:40:15;100723.97;;;10.90;100.00
71424;BME280;59240;51.370;-0.486;2022-11-20T11:42:56;100721.19;;;10.98;100.00
71424;BME280;59240;51.370;-0.486;2022-11-20T11:45:24;100719.31;;;11.03;100.00
71424;BME280;59240;51.370;-0.486;2022-11-20T11:47:52;100720.25;;;11.00;100.00
71424;BME280;59240;51.370;-0.486;2022-11-20T11:50:25;100728.13;;;10.99;100.00
71424;BME280;59240;51.370;-0.486;2022-11-20T11:53:14;100721.88;;;11.04;100.00
71424;BME280;59240;51.370;-0.486;2022-11-20T11:55:58;100710.41;;;11.13;100.00
71424;BME280;59240;51.370;-0.486;2022-11-20T11:58:50;100715.38;;;11.22;100.00
71424;BME280;59240;51.370;-0.486;2022-11-20T12:04:05;100717.16;;;11.20;100.00
71424;BME280;59240;51.370;-0.486;2022-11-20T12:06:43;100719.03;;;11.15;100.00
71424;BME280;59240;51.370;-0.486;2022-11-20T12:09:11;100708.69;;;11.12;100.00
71424;BME280;59240;51.370;-0.486;2022-11-20T12:11:47;100713.91;;;11.12;100.00
71424;BME280;59240;51.370;-0.486;2022-11-20T12:14:24;100724.16;;;11.18;100.00
71424;BME280;59240;51.370;-0.486;2022-11-20T12:16:53;100716.31;;;11.19;100.00
71424;BME280;59240;51.370;-0.486;2022-11-20T12:19:21;100721.53;;;11.18;100.00
71424;BME280;59240;51.370;-0.486;2022-11-20T12:24:46;100721.69;;;11.13;100.00
71424;BME280;59240;51.370;-0.486;2022-11-20T12:27:51;100727.00;;;11.09;100.00
71424;BME280;59240;51.370;-0.486;2022-11-20T12:30:24;100721.03;;;11.04;100.00
71424;BME280;59240;51.370;-0.486;2022-11-20T12:57:11;100726.28;;;10.66;100.00
71424;BME280;59240;51.370;-0.486;2022-11-20T13:02:38;100729.91;;;10.59;100.00
71424;BME280;59240;51.370;-0.486;2022-11-20T13:07:44;100720.56;;;10.51;100.00
71424;BME280;59240;51.370;-0.486;2022-11-20T13:10:32;100727.53;;;10.49;100.00
71424;BME280;59240;51.370;-0.486;2022-11-20T13:13:07;100732.84;;;10.46;100.00
71424;BME280;59240;51.370;-0.486;2022-11-20T13:15:50;100731.19;;;10.41;100.00
71424;BME280;59240;51.370;-0.486;2022-11-20T13:18:20;100731.25;;;10.38;100.00
71424;BME280;59240;51.370;-0.486;2022-11-20T13:20:47;100732.28;;;10.31;100.00
71424;BME280;59240;51.370;-0.486;2022-11-20T13:23:26;100741.72;;;10.35;100.00
71424;BME280;59240;51.370;-0.486;2022-11-20T13:26:05;100742.56;;;10.36;100.00
71424;BME280;59240;51.370;-0.486;2022-11-20T13:28:32;100733.94;;;10.34;100.00
71424;BME280;59240;51.370;-0.486;2022-11-20T13:30:59;100746.06;;;10.35;100.00
71424;BME280;59240;51.370;-0.486;2022-11-20T13:33:32;100749.63;;;10.32;99.63
71424;BME280;59240;51.370;-0.486;2022-11-20T13:36:19;100741.94;;;10.26;99.25
71424;BME280;59240;51.370;-0.486;2022-11-20T13:38:48;100748.03;;;10.22;100.00
71424;BME280;59240;51.370;-0.486;2022-11-20T13:41:30;100728.31;;;10.12;98.97
71424;BME280;59240;51.370;-0.486;2022-11-20T13:44:53;100735.34;;;10.07;99.58
71424;BME280;59240;51.370;-0.486;2022-11-20T13:47:01;100712.94;;;10.00;98.20
71424;BME280;59240;51.370;-0.486;2022-11-20T13:49:33;100724.09;;;10.06;98.37
71424;BME280;59240;51.370;-0.486;2022-11-20T13:52:35;100715.38;;;10.07;98.52
71424;BME280;59240;51.370;-0.486;2022-11-20T14:00:20;100686.78;;;10.06;96.38
71424;BME280;59240;51.370;-0.486;2022-11-20T14:03:17;100682.53;;;10.03;97.97
71424;BME280;59240;51.370;-0.486;2022-11-20T14:06:02;100663.50;;;10.00;99.23
71424;BME280;59240;51.370;-0.486;2022-11-20T14:08:37;100643.56;;;9.99;97.72
71424;BME280;59240;51.370;-0.486;2022-11-20T14:11:34;100640.03;;;10.03;99.42
71424;BME280;59240;51.370;-0.486;2022-11-20T14:16:41;100662.69;;;9.98;97.55
71424;BME280;59240;51.370;-0.486;2022-11-20T14:21:52;100657.69;;;9.89;98.16
71424;BME280;59240;51.370;-0.486;2022-11-20T14:24:20;100702.22;;;10.15;98.46
71424;BME280;59240;51.370;-0.486;2022-11-20T14:26:48;100700.38;;;10.20;98.77
71424;BME280;59240;51.370;-0.486;2022-11-20T14:31:45;100696.09;;;10.18;96.04